createdAt,value
2022-08-19T00:02:13.342Z,29.09
2022-08-19T00:04:41.209Z,29.32
2022-08-19T00:07:08.945Z,29.50
2022-08-19T00:09:36.235Z,29.03
2022-08-19T00:12:04.449Z,29.03
2022-08-19T00:14:33.006Z,28.98
2022-08-19T00:17:01.135Z,29.06
2022-08-19T00:19:28.234Z,28.94
2022-08-19T00:21:57.321Z,29.09
2022-08-19T00:24:24.739Z,28.99
2022-08-19T00:26:52.894Z,28.63
2022-08-19T00:29:25.631Z,28.87
2022-08-19T00:31:57.620Z,29.05
2022-08-19T00:34:26.097Z,28.96
2022-08-19T00:36:53.180Z,28.41
2022-08-19T00:39:20.330Z,28.67
2022-08-19T00:41:50.610Z,28.19
2022-08-19T00:44:27.064Z,28.12
2022-08-19T00:46:59.167Z,28.45
2022-08-19T00:49:54.445Z,28.81
2022-08-19T00:52:31.080Z,28.52
2022-08-19T00:55:00.160Z,28.93
2022-08-19T00:57:35.552Z,29.11
2022-08-19T01:00:07.766Z,28.58
2022-08-19T01:02:34.803Z,28.68
2022-08-19T01:05:10.978Z,28.55
2022-08-19T01:07:41.690Z,29.24
2022-08-19T01:10:20.145Z,29.15
2022-08-19T01:12:48.915Z,29.18
2022-08-19T01:15:22.256Z,29.21
2022-08-19T01:17:50.234Z,28.79
2022-08-19T01:20:22.249Z,28.58
2022-08-19T01:22:59.541Z,28.78
2022-08-19T01:25:41.866Z,28.94
2022-08-19T01:28:10.872Z,28.76
2022-08-19T01:30:38.927Z,28.30
2022-08-19T01:33:06.933Z,28.91
2022-08-19T01:35:34.028Z,28.85
2022-08-19T01:38:08.688Z,28.56
2022-08-19T01:40:41.383Z,28.65
2022-08-19T01:43:08.783Z,28.51
2022-08-19T01:45:37.271Z,28.20
2022-08-19T01:48:05.293Z,28.63
2022-08-19T01:50:35.044Z,28.80
2022-08-19T01:53:07.966Z,28.70
2022-08-19T01:55:40.584Z,28.57
2022-08-19T01:58:16.023Z,28.62
2022-08-19T02:00:44.629Z,28.65
2022-08-19T02:03:12.459Z,28.71
2022-08-19T02:05:41.666Z,27.76
2022-08-19T02:08:09.820Z,28.22
2022-08-19T02:10:42.812Z,28.69
2022-08-19T02:13:11.132Z,28.46
2022-08-19T02:15:38.992Z,28.60
2022-08-19T02:18:06.632Z,28.86
2022-08-19T02:20:33.845Z,29.09
2022-08-19T02:23:02.214Z,28.50
2022-08-19T02:25:29.363Z,28.50
2022-08-19T02:27:56.590Z,28.73
2022-08-19T02:30:23.724Z,28.82
2022-08-19T02:32:52.517Z,29.03
2022-08-19T02:35:19.787Z,29.05
2022-08-19T02:38:05.656Z,28.94
2022-08-19T02:40:37.645Z,28.81
2022-08-19T02:43:08.594Z,28.51
2022-08-19T02:45:40.470Z,28.14
2022-08-19T02:48:12.700Z,27.92
2022-08-19T02:50:56.108Z,28.64
2022-08-19T02:53:26.909Z,28.18
2022-08-19T02:55:54.687Z,28.89
2022-08-19T02:58:23.986Z,28.15
2022-08-19T03:00:56.714Z,28.98
2022-08-19T03:03:24.584Z,28.87
2022-08-19T03:05:56.742Z,29.09
2022-08-19T03:08:26.565Z,28.41
2022-08-19T03:10:54.079Z,28.43
2022-08-19T03:13:21.218Z,28.38
2022-08-19T03:15:49.429Z,28.72
2022-08-19T03:18:17.928Z,28.58
2022-08-19T03:20:49.964Z,28.18
2022-08-19T03:23:17.840Z,28.51
2022-08-19T03:26:03.153Z,28.33
2022-08-19T03:28:35.960Z,28.09
2022-08-19T03:31:43.936Z,28.26
2022-08-19T03:33:59.533Z,28.06
2022-08-19T03:36:29.514Z,27.70
2022-08-19T03:39:00.274Z,27.38
2022-08-19T03:41:43.291Z,27.56
2022-08-19T03:44:18.409Z,27.89
2022-08-19T03:46:49.633Z,27.89
2022-08-19T03:49:18.337Z,27.88
2022-08-19T03:51:47.090Z,28.21
2022-08-19T03:54:17.309Z,28.67
2022-08-19T03:56:47.780Z,28.12
2022-08-19T03:59:30.770Z,28.03
2022-08-19T04:02:00.065Z,27.99
2022-08-19T04:04:29.249Z,28.31
2022-08-19T04:06:57.774Z,28.18
2022-08-19T04:09:25.318Z,28.65
2022-08-19T04:11:55.663Z,28.10
2022-08-19T04:14:29.324Z,27.74
2022-08-19T04:16:56.595Z,28.26
2022-08-19T04:19:24.343Z,28.68
2022-08-19T04:21:54.818Z,28.95
2022-08-19T04:24:23.510Z,29.00
2022-08-19T04:26:51.363Z,28.51
2022-08-19T04:29:25.730Z,29.12
2022-08-19T04:31:56.516Z,29.07
2022-08-19T04:34:27.197Z,29.08
2022-08-19T04:36:57.366Z,28.74
2022-08-19T04:40:04.271Z,29.54
2022-08-19T04:42:40.054Z,29.27
2022-08-19T04:45:13.874Z,29.34
2022-08-19T04:47:49.251Z,28.92
2022-08-19T04:50:27.592Z,29.40
2022-08-19T04:52:56.513Z,29.70
2022-08-19T04:55:26.679Z,29.68
2022-08-19T04:57:55.528Z,29.27
2022-08-19T05:00:23.454Z,28.92
2022-08-19T05:02:50.638Z,29.30
2022-08-19T05:05:18.297Z,29.60
2022-08-19T05:07:45.433Z,29.01
2022-08-19T05:10:13.718Z,29.21
2022-08-19T05:12:41.024Z,29.74
2022-08-19T05:15:12.189Z,28.80
2022-08-19T05:17:39.452Z,29.54
2022-08-19T05:20:27.898Z,29.82
2022-08-19T05:22:55.083Z,29.32
2022-08-19T05:25:23.520Z,28.84
2022-08-19T05:27:50.529Z,29.20
2022-08-19T05:30:18.589Z,29.26
2022-08-19T05:32:51.345Z,29.80
2022-08-19T05:35:21.574Z,29.03
2022-08-19T05:37:48.551Z,30.04
2022-08-19T05:40:21.939Z,30.13
2022-08-19T05:42:55.194Z,29.94
2022-08-19T05:45:22.880Z,29.93
2022-08-19T05:47:49.839Z,30.22
2022-08-19T05:50:18.464Z,30.43
2022-08-19T05:52:54.357Z,29.78
2022-08-19T05:55:21.929Z,28.94
2022-08-19T05:57:49.418Z,29.50
2022-08-19T06:00:19.482Z,30.20
2022-08-19T06:02:49.901Z,31.03
2022-08-19T06:05:17.037Z,31.11
2022-08-19T06:07:44.119Z,31.74
2022-08-19T06:10:15.394Z,32.01
2022-08-19T06:12:42.370Z,31.53
2022-08-19T06:15:13.059Z,31.63
2022-08-19T06:17:40.405Z,31.70
2022-08-19T06:20:14.584Z,33.32
2022-08-19T06:22:48.294Z,33.93
2022-08-19T06:25:16.470Z,34.31
2022-08-19T06:28:11.361Z,33.30
2022-08-19T06:30:32.335Z,33.59
2022-08-19T06:32:59.573Z,33.68
2022-08-19T06:35:26.572Z,33.31
2022-08-19T06:37:53.895Z,31.75
2022-08-19T06:40:21.145Z,32.46
2022-08-19T06:42:54.279Z,31.70
2022-08-19T06:45:34.611Z,31.54
2022-08-19T06:48:03.933Z,32.48
2022-08-19T06:50:31.095Z,32.91
2022-08-19T06:52:58.042Z,32.20
2022-08-19T06:55:31.106Z,32.88
2022-08-19T06:58:04.826Z,32.34
2022-08-19T07:03:07.812Z,32.89
2022-08-19T07:05:45.947Z,31.86
2022-08-19T07:08:14.754Z,33.27
2022-08-19T07:10:46.075Z,33.46
2022-08-19T07:13:13.495Z,33.54
2022-08-19T07:15:40.650Z,33.19
2022-08-19T07:18:07.894Z,32.21
2022-08-19T07:20:42.042Z,32.20
2022-08-19T07:23:09.950Z,32.42
2022-08-19T07:25:44.291Z,31.95
2022-08-19T07:28:14.347Z,31.40
2022-08-19T07:30:52.873Z,32.97
2022-08-19T07:33:20.266Z,32.86
2022-08-19T07:35:47.354Z,33.49
2022-08-19T07:38:15.822Z,34.30
2022-08-19T07:40:44.390Z,33.28
2022-08-19T07:43:14.204Z,32.95
2022-08-19T07:45:44.513Z,33.75
2022-08-19T07:48:12.097Z,34.43
2022-08-19T07:50:39.521Z,33.39
2022-08-19T07:53:06.539Z,34.06
2022-08-19T07:55:40.525Z,34.65
2022-08-19T07:58:14.846Z,34.88
2022-08-19T08:00:43.275Z,34.74
2022-08-19T08:03:13.866Z,35.92
2022-08-19T08:05:59.906Z,35.65
2022-08-19T08:08:48.058Z,35.48
2022-08-19T08:11:20.071Z,35.25
2022-08-19T08:14:01.325Z,35.00
2022-08-19T08:16:39.491Z,36.59
2022-08-19T08:19:25.730Z,37.36
2022-08-19T08:21:59.229Z,36.90
2022-08-19T08:24:31.697Z,37.13
2022-08-19T08:27:01.293Z,37.79
2022-08-19T08:29:34.935Z,38.25
2022-08-19T08:32:02.496Z,37.56
2022-08-19T08:34:29.512Z,37.58
2022-08-19T08:36:56.916Z,38.37
2022-08-19T08:39:24.019Z,38.96
2022-08-19T08:42:20.984Z,37.54
2022-08-19T08:45:01.049Z,36.70
2022-08-19T08:47:41.918Z,38.24
2022-08-19T08:50:20.473Z,37.62
2022-08-19T08:52:49.220Z,36.75
2022-08-19T08:55:21.957Z,37.75
2022-08-19T08:57:49.632Z,36.74
2022-08-19T09:00:27.515Z,38.36
2022-08-19T09:02:56.123Z,38.48
2022-08-19T09:05:27.427Z,38.80
2022-08-19T09:08:27.614Z,36.76
2022-08-19T09:10:58.300Z,36.77
2022-08-19T09:14:03.967Z,36.93
2022-08-19T09:16:31.548Z,37.14
2022-08-19T09:19:08.277Z,35.71
2022-08-19T09:21:39.401Z,35.40
2022-08-19T09:24:07.938Z,35.23
2022-08-19T09:26:48.586Z,34.85
2022-08-19T09:29:22.585Z,36.31
2022-08-19T09:31:51.148Z,35.77
2022-08-19T09:34:21.459Z,34.36
2022-08-19T09:36:54.229Z,35.54
2022-08-19T09:39:22.263Z,35.63
2022-08-19T09:41:52.278Z,36.05
2022-08-19T09:44:21.365Z,37.56
2022-08-19T09:46:52.444Z,36.79
2022-08-19T09:49:22.749Z,36.95
2022-08-19T09:51:55.326Z,37.17
2022-08-19T09:54:23.837Z,36.91
2022-08-19T09:56:54.097Z,36.22
2022-08-19T09:59:21.619Z,37.12
2022-08-19T10:01:48.878Z,38.08
2022-08-19T10:04:20.429Z,38.33
2022-08-19T10:06:53.632Z,37.95
2022-08-19T10:09:26.297Z,36.42
2022-08-19T10:12:02.724Z,38.21
2022-08-19T10:14:30.416Z,37.87
2022-08-19T10:16:59.179Z,37.64
2022-08-19T10:19:26.839Z,38.46
2022-08-19T10:22:00.275Z,38.12
2022-08-19T10:24:29.283Z,37.07
2022-08-19T10:26:59.973Z,38.22
2022-08-19T10:29:31.937Z,37.70
2022-08-19T10:32:03.769Z,39.31
2022-08-19T10:34:32.257Z,38.86
2022-08-19T10:37:01.884Z,39.42
2022-08-19T10:39:43.422Z,38.97
2022-08-19T10:42:23.180Z,37.04
2022-08-19T10:44:51.883Z,38.26
2022-08-19T10:47:25.023Z,37.35
2022-08-19T10:50:14.891Z,38.97
2022-08-19T10:52:48.984Z,39.54
2022-08-19T10:55:39.147Z,38.10
2022-08-19T10:58:23.194Z,39.41
2022-08-19T11:00:59.809Z,39.00
2022-08-19T11:03:30.386Z,38.44
2022-08-19T11:06:07.779Z,39.26
2022-08-19T11:08:38.494Z,39.18
2022-08-19T11:11:07.418Z,38.45
2022-08-19T11:13:40.570Z,38.98
2022-08-19T11:16:18.701Z,39.64
2022-08-19T11:18:52.531Z,39.61
2022-08-19T11:21:32.841Z,39.85
2022-08-19T11:24:01.298Z,40.99
2022-08-19T11:26:30.318Z,40.99
2022-08-19T11:28:59.069Z,40.29
2022-08-19T11:31:33.351Z,40.11
2022-08-19T11:34:04.029Z,40.45
2022-08-19T11:36:33.537Z,40.68
2022-08-19T11:39:02.954Z,40.18
2022-08-19T11:41:30.106Z,38.94
2022-08-19T11:43:57.525Z,38.51
2022-08-19T11:46:28.270Z,38.82
2022-08-19T11:48:55.390Z,38.15
2022-08-19T11:51:28.058Z,38.18
2022-08-19T11:53:58.171Z,39.24
2022-08-19T11:56:26.558Z,39.49
2022-08-19T11:58:55.151Z,38.13
2022-08-19T12:01:25.990Z,39.20
2022-08-19T12:03:56.903Z,39.38
2022-08-19T12:06:29.484Z,41.09
2022-08-19T12:09:06.265Z,39.06
2022-08-19T12:11:34.680Z,39.01
2022-08-19T12:14:01.956Z,39.09
2022-08-19T12:16:31.672Z,37.86
2022-08-19T12:19:04.419Z,40.03
2022-08-19T12:21:35.057Z,37.89
2022-08-19T12:24:04.880Z,38.83
2022-08-19T12:26:32.582Z,37.68
2022-08-19T12:29:03.447Z,38.25
2022-08-19T12:31:31.180Z,38.04
2022-08-19T12:33:58.206Z,39.03
2022-08-19T12:36:26.253Z,38.35
2022-08-19T12:38:53.937Z,38.10
2022-08-19T12:41:23.239Z,39.49
2022-08-19T12:43:50.879Z,38.89
2022-08-19T12:46:22.295Z,39.46
2022-08-19T12:48:55.305Z,39.47
2022-08-19T12:51:22.584Z,38.45
2022-08-19T12:53:50.907Z,37.80
2022-08-19T12:56:23.000Z,38.38
2022-08-19T12:58:50.948Z,39.81
2022-08-19T13:01:23.117Z,39.47
2022-08-19T13:03:53.431Z,39.35
2022-08-19T13:06:20.943Z,39.54
2022-08-19T13:08:48.637Z,37.73
2022-08-19T13:11:20.004Z,37.87
2022-08-19T13:13:52.078Z,38.47
2022-08-19T13:16:21.248Z,37.77
2022-08-19T13:18:49.181Z,37.91
2022-08-19T13:21:16.669Z,38.06
2022-08-19T13:23:44.006Z,38.73
2022-08-19T13:26:13.736Z,39.08
2022-08-19T13:29:01.494Z,38.44
2022-08-19T13:31:50.815Z,37.89
2022-08-19T13:34:26.964Z,38.21
2022-08-19T13:36:59.422Z,38.72
2022-08-19T13:39:28.533Z,39.76
2022-08-19T13:41:55.690Z,38.50
2022-08-19T13:44:23.514Z,38.66
2022-08-19T13:46:54.193Z,38.04
2022-08-19T13:49:21.607Z,38.98
2022-08-19T13:51:48.795Z,38.65
2022-08-19T13:54:16.018Z,39.20
2022-08-19T13:56:46.931Z,38.94
2022-08-19T13:59:15.501Z,38.73
2022-08-19T14:01:46.429Z,38.86
2022-08-19T14:04:14.422Z,37.95
2022-08-19T14:06:45.917Z,38.85
2022-08-19T14:09:23.415Z,39.36
2022-08-19T14:11:55.248Z,40.33
2022-08-19T14:14:25.229Z,40.08
2022-08-19T14:16:57.936Z,40.71
2022-08-19T14:19:25.154Z,40.23
2022-08-19T14:21:58.557Z,40.66
2022-08-19T14:24:26.116Z,39.49
2022-08-19T14:26:53.472Z,38.42
2022-08-19T14:29:20.971Z,38.86
2022-08-19T14:31:48.029Z,39.07
2022-08-19T14:34:15.006Z,39.37
2022-08-19T14:36:42.911Z,38.36
2022-08-19T14:39:12.658Z,38.80
2022-08-19T14:41:42.234Z,38.98
2022-08-19T14:44:13.258Z,38.80
2022-08-19T14:46:41.371Z,38.04
2022-08-19T14:49:16.447Z,38.43
2022-08-19T14:51:43.550Z,38.89
2022-08-19T14:54:10.683Z,38.47
2022-08-19T14:56:37.747Z,39.67
2022-08-19T14:59:04.788Z,37.89
2022-08-19T15:01:32.069Z,38.73
2022-08-19T15:03:59.357Z,38.32
2022-08-19T15:06:27.460Z,38.92
2022-08-19T15:08:55.238Z,38.93
2022-08-19T15:11:27.693Z,38.98
2022-08-19T15:13:56.680Z,39.31
2022-08-19T15:16:26.194Z,39.58
2022-08-19T15:19:19.115Z,39.95
2022-08-19T15:21:46.172Z,40.04
2022-08-19T15:24:13.158Z,39.17
2022-08-19T15:26:41.762Z,38.52
2022-08-19T15:29:09.247Z,39.26
2022-08-19T15:31:38.748Z,38.63
2022-08-19T15:34:07.065Z,38.12
2022-08-19T15:36:35.323Z,38.62
2022-08-19T15:39:07.375Z,39.04
2022-08-19T15:41:34.737Z,39.31
2022-08-19T15:44:09.568Z,39.25
2022-08-19T15:46:40.398Z,38.35
2022-08-19T15:49:08.780Z,38.37
2022-08-19T15:51:39.125Z,37.85
2022-08-19T15:54:10.500Z,37.61
2022-08-19T15:56:57.736Z,38.19
2022-08-19T15:59:47.208Z,38.17
2022-08-19T16:02:37.219Z,37.46
2022-08-19T16:05:27.386Z,38.30
2022-08-19T16:07:54.822Z,38.99
2022-08-19T16:10:27.503Z,38.26
2022-08-19T16:12:57.865Z,38.63
2022-08-19T16:15:28.007Z,37.97
2022-08-19T16:17:58.184Z,37.90
2022-08-19T16:20:27.422Z,38.39
2022-08-19T16:22:59.044Z,38.52
2022-08-19T16:25:29.114Z,38.21
2022-08-19T16:28:07.922Z,38.08
2022-08-19T16:30:39.314Z,38.52
2022-08-19T16:33:07.191Z,39.00
2022-08-19T16:35:34.737Z,38.66
2022-08-19T16:38:02.731Z,39.26
2022-08-19T16:40:29.832Z,38.19
2022-08-19T16:42:59.155Z,38.34
2022-08-19T16:45:26.227Z,37.82
2022-08-19T16:47:53.812Z,38.59
2022-08-19T16:50:25.339Z,38.39
2022-08-19T16:53:00.524Z,38.74
2022-08-19T16:55:28.402Z,38.50
2022-08-19T16:57:55.566Z,38.04
2022-08-19T17:00:23.219Z,38.09
2022-08-19T17:02:50.338Z,37.88
2022-08-19T17:05:17.446Z,38.22
2022-08-19T17:07:45.038Z,38.07
2022-08-19T17:10:12.087Z,38.28
2022-08-19T17:12:39.146Z,38.28
2022-08-19T17:15:08.523Z,38.24
2022-08-19T17:17:37.293Z,38.59
2022-08-19T17:20:05.490Z,38.92
2022-08-19T17:22:32.600Z,38.73
2022-08-19T17:24:59.557Z,38.86
2022-08-19T17:27:31.393Z,38.60
2022-08-19T17:30:04.528Z,38.58
2022-08-19T17:32:35.635Z,38.65
2022-08-19T17:35:04.739Z,38.61
2022-08-19T17:37:32.598Z,38.22
2022-08-19T17:39:59.723Z,38.59
2022-08-19T17:42:26.964Z,38.26
2022-08-19T17:44:54.299Z,38.17
2022-08-19T17:47:21.415Z,38.46
2022-08-19T17:49:48.466Z,38.66
2022-08-19T17:52:15.576Z,38.63
2022-08-19T17:54:42.566Z,38.45
2022-08-19T17:57:09.842Z,38.24
2022-08-19T17:59:39.828Z,38.53
2022-08-19T18:02:10.046Z,38.52
2022-08-19T18:04:38.419Z,38.42
2022-08-19T18:07:06.394Z,38.71
2022-08-19T18:09:42.254Z,38.75
2022-08-19T18:12:13.134Z,38.22
2022-08-19T18:14:41.212Z,38.21
2022-08-19T18:17:13.628Z,37.91
2022-08-19T18:19:43.758Z,37.83
2022-08-19T18:22:22.527Z,37.87
2022-08-19T18:24:49.974Z,37.88
2022-08-19T18:27:17.334Z,37.37
2022-08-19T18:29:45.439Z,37.72
2022-08-19T18:32:13.598Z,37.58
2022-08-19T18:34:43.419Z,37.43
2022-08-19T18:37:11.189Z,37.50
2022-08-19T18:39:57.406Z,37.69
2022-08-19T18:42:43.875Z,37.69
2022-08-19T18:45:30.377Z,37.10
2022-08-19T18:48:27.354Z,37.04
2022-08-19T18:53:45.398Z,37.28
2022-08-19T18:56:15.541Z,37.61
2022-08-19T18:58:44.221Z,37.84
2022-08-19T19:01:30.977Z,37.74
2022-08-19T19:04:04.287Z,37.84
2022-08-19T19:06:38.019Z,37.58
2022-08-19T19:09:15.462Z,37.04
2022-08-19T19:11:46.769Z,37.42
2022-08-19T19:14:47.748Z,37.42
2022-08-19T19:17:14.340Z,37.18
2022-08-19T19:19:42.886Z,37.36
2022-08-19T19:22:14.681Z,37.23
2022-08-19T19:24:45.250Z,37.12
2022-08-19T19:27:15.463Z,37.03
2022-08-19T19:29:43.060Z,37.08
2022-08-19T19:32:21.733Z,36.93
2022-08-19T19:34:49.626Z,37.04
2022-08-19T19:37:19.526Z,36.95
2022-08-19T19:39:49.649Z,36.92
2022-08-19T19:42:21.361Z,36.81
2022-08-19T19:44:52.298Z,35.74
2022-08-19T19:47:19.880Z,36.28
2022-08-19T19:50:13.801Z,36.54
2022-08-19T19:52:40.006Z,36.67
2022-08-19T19:55:09.461Z,36.71
2022-08-19T19:57:37.440Z,36.70
2022-08-19T20:00:07.016Z,36.70
2022-08-19T20:02:34.161Z,36.68
2022-08-19T20:05:01.617Z,36.36
2022-08-19T20:07:47.030Z,36.45
2022-08-19T20:10:14.198Z,36.50
2022-08-19T20:12:44.533Z,36.38
2022-08-19T20:15:12.433Z,36.44
2022-08-19T20:17:42.291Z,36.24
2022-08-19T20:20:13.925Z,35.96
2022-08-19T20:22:43.935Z,35.81
2022-08-19T20:25:12.192Z,35.83
2022-08-19T20:27:52.276Z,35.28
2022-08-19T20:30:21.892Z,34.75
2022-08-19T20:32:50.597Z,35.04
2022-08-19T20:35:20.772Z,35.23
2022-08-19T20:37:52.861Z,35.20
2022-08-19T20:40:23.759Z,34.85
2022-08-19T20:42:50.879Z,34.27
2022-08-19T20:45:32.895Z,34.49
2022-08-19T20:48:07.216Z,34.27
2022-08-19T20:50:39.657Z,34.81
2022-08-19T20:53:16.270Z,34.51
2022-08-19T20:55:46.951Z,34.58
2022-08-19T20:58:21.195Z,34.71
2022-08-19T21:00:50.886Z,34.77
2022-08-19T21:03:21.546Z,34.29
2022-08-19T21:05:50.271Z,34.02
2022-08-19T21:08:20.266Z,33.87
2022-08-19T21:10:52.381Z,33.89
2022-08-19T21:13:20.899Z,34.37
2022-08-19T21:15:48.818Z,33.84
2022-08-19T21:18:19.819Z,34.02
2022-08-19T21:20:47.870Z,33.82
2022-08-19T21:23:25.755Z,33.99
2022-08-19T21:25:54.886Z,34.00
2022-08-19T21:28:34.338Z,34.06
2022-08-19T21:31:06.259Z,33.83
2022-08-19T21:33:40.785Z,33.81
2022-08-19T21:36:11.393Z,34.22
2022-08-19T21:38:38.781Z,34.27
2022-08-19T21:41:06.867Z,33.98
2022-08-19T21:43:36.813Z,33.66
2022-08-19T21:46:04.685Z,33.36
2022-08-19T21:48:31.795Z,33.59
2022-08-19T21:50:58.863Z,33.87
2022-08-19T21:53:31.561Z,34.21
2022-08-19T21:56:09.157Z,34.04
2022-08-19T21:58:38.696Z,34.30
2022-08-19T22:01:07.823Z,34.46
2022-08-19T22:03:37.462Z,34.48
2022-08-19T22:06:05.166Z,34.38
2022-08-19T22:08:32.373Z,34.15
2022-08-19T22:10:59.432Z,34.25
2022-08-19T22:13:27.370Z,34.05
2022-08-19T22:15:55.326Z,33.70
2022-08-19T22:18:22.356Z,33.65
2022-08-19T22:20:50.240Z,33.76
2022-08-19T22:23:17.319Z,33.84
2022-08-19T22:25:47.220Z,33.84
2022-08-19T22:28:18.762Z,34.04
2022-08-19T22:30:51.102Z,34.06
2022-08-19T22:33:20.796Z,34.21
2022-08-19T22:35:48.916Z,34.24
2022-08-19T22:38:16.614Z,33.39
2022-08-19T22:40:48.419Z,33.59
2022-08-19T22:43:37.395Z,33.12
2022-08-19T22:46:06.514Z,33.32
2022-08-19T22:48:45.293Z,33.34
2022-08-19T22:51:31.094Z,33.45
2022-08-19T22:53:58.109Z,32.77
2022-08-19T22:56:25.799Z,32.34
2022-08-19T22:58:52.857Z,32.62
2022-08-19T23:01:24.840Z,33.12
2022-08-19T23:03:56.646Z,33.09
2022-08-19T23:06:23.823Z,33.36
2022-08-19T23:09:00.272Z,33.30
2022-08-19T23:11:27.263Z,33.11
2022-08-19T23:13:54.313Z,32.89
2022-08-19T23:16:21.350Z,32.60
2022-08-19T23:18:48.629Z,32.91
2022-08-19T23:21:16.563Z,32.99
2022-08-19T23:23:44.152Z,32.71
2022-08-19T23:26:11.863Z,32.18
2022-08-19T23:28:58.127Z,32.08
2022-08-19T23:31:27.162Z,32.15
2022-08-19T23:33:54.212Z,31.79
2022-08-19T23:36:22.810Z,31.44
2022-08-19T23:38:52.374Z,31.10
2022-08-19T23:41:22.251Z,30.47
2022-08-19T23:43:50.822Z,30.29
2022-08-19T23:46:27.554Z,30.75
2022-08-19T23:48:57.034Z,30.93
2022-08-19T23:51:26.436Z,31.05
2022-08-19T23:53:53.561Z,31.02
2022-08-19T23:56:21.482Z,30.52
2022-08-19T23:58:49.215Z,30.85
